Time;durP1;ratioP1;P1;durP2;ratioP2;P2;SDS_P1;SDS_P2;PMS_P1;PMS_P2;Temp;Humidity;BMP_temperature;BMP_pressure;BME280_temperature;BME280_humidity;BME280_pressure;Samples;Min_cycle;Max_cycle;Signal;HPM_P1;HPM_P2
2023/05/13 00:01:10;0.00;0.00;0.62;0.00;0.00;0.62;3.90;3.60;;;27.50;22.60;;;;;;2262821;40;20398;-57
2023/05/13 00:03:54;0.00;0.00;0.62;0.00;0.00;0.62;4.03;3.63;;;27.50;22.60;;;;;;2256879;61;20416;-65
2023/05/13 00:06:40;0.00;0.00;0.62;0.00;0.00;0.62;4.40;4.00;;;27.50;22.60;;;;;;2256736;61;20369;-61
2023/05/13 00:09:25;0.00;0.00;0.62;0.00;0.00;0.62;3.40;3.10;;;27.50;22.60;;;;;;2256677;61;20390;-61
2023/05/13 00:12:09;0.00;0.00;0.62;0.00;0.00;0.62;4.53;4.13;;;27.50;22.70;;;;;;2256879;61;20954;-61
2023/05/13 00:14:54;0.00;0.00;0.62;0.00;0.00;0.62;3.60;3.30;;;27.50;22.70;;;;;;2256435;61;20366;-61
2023/05/13 00:17:39;0.00;0.00;0.62;0.00;0.00;0.62;3.97;3.33;;;27.50;23.20;;;;;;2257187;61;20693;-57
2023/05/13 00:20:23;0.00;0.00;0.62;0.00;0.00;0.62;4.20;3.80;;;27.50;22.60;;;;;;2256449;61;20493;-56
2023/05/13 00:23:10;0.00;0.00;0.62;0.00;0.00;0.62;3.60;3.30;;;27.50;22.60;;;;;;2257187;61;20406;-60
2023/05/13 00:25:55;0.00;0.00;0.62;0.00;0.00;0.62;3.50;3.20;;;27.50;23.20;;;;;;2257188;61;20779;-61
2023/05/13 00:28:40;0.00;0.00;0.62;0.00;0.00;0.62;4.30;3.90;;;27.50;22.70;;;;;;2256569;61;20417;-60
2023/05/13 00:31:24;0.00;0.00;0.62;0.00;0.00;0.62;3.53;3.23;;;27.50;22.70;;;;;;2256799;61;20832;-62
2023/05/13 00:34:09;0.00;0.00;0.62;0.00;0.00;0.62;3.63;3.33;;;27.50;22.70;;;;;;2256629;61;20366;-60
2023/05/13 00:36:53;0.00;0.00;0.62;0.00;0.00;0.62;3.30;3.00;;;27.50;22.70;;;;;;2256840;61;20358;-60
2023/05/13 00:39:40;0.00;0.00;0.62;0.00;0.00;0.62;3.60;3.30;;;27.50;22.70;;;;;;2256417;61;20463;-61
2023/05/13 00:42:25;0.00;0.00;0.62;0.00;0.00;0.62;4.30;3.90;;;27.40;22.60;;;;;;2257094;61;20365;-60
2023/05/13 00:45:10;0.00;0.00;0.62;0.00;0.00;0.62;4.90;3.30;;;27.50;22.70;;;;;;2256698;61;20424;-61
2023/05/13 00:47:54;0.00;0.00;0.62;0.00;0.00;0.62;4.10;3.77;;;27.40;23.20;;;;;;2256323;61;20787;-61
2023/05/13 00:50:43;0.00;0.00;0.62;0.00;0.00;0.62;3.90;3.13;;;27.40;22.60;;;;;;2255632;61;21012;-57
2023/05/13 00:53:29;0.00;0.00;0.62;0.00;0.00;0.62;4.17;3.87;;;27.40;22.60;;;;;;2256204;61;20386;-61
2023/05/13 00:56:18;0.00;0.00;0.62;0.00;0.00;0.62;3.50;3.17;;;27.40;22.70;;;;;;2256472;61;20366;-60
2023/05/13 00:59:04;0.00;0.00;0.62;0.00;0.00;0.62;3.70;3.37;;;27.40;22.70;;;;;;2255798;61;20677;-61
2023/05/13 01:01:59;0.00;0.00;0.62;0.00;0.00;0.62;4.20;3.80;;;27.40;22.70;;;;;;2256871;61;20381;-60
2023/05/13 01:04:58;0.00;0.00;0.62;0.00;0.00;0.62;4.30;3.90;;;27.40;22.70;;;;;;2256736;61;20890;-60
2023/05/13 01:07:55;0.00;0.00;0.62;0.00;0.00;0.62;3.60;3.30;;;27.40;22.70;;;;;;2256996;61;20375;-61
2023/05/13 01:10:48;0.00;0.00;0.62;0.00;0.00;0.62;3.30;3.00;;;27.40;22.70;;;;;;2256581;61;20389;-60
2023/05/13 01:13:41;0.00;0.00;0.62;0.00;0.00;0.62;4.03;3.60;;;27.40;22.70;;;;;;2256481;61;20412;-60
2023/05/13 01:16:33;0.00;0.00;0.62;0.00;0.00;0.62;3.60;3.30;;;27.40;22.70;;;;;;2257668;61;20575;-61
2023/05/13 01:19:37;0.00;0.00;0.62;0.00;0.00;0.62;3.77;3.47;;;27.40;22.70;;;;;;2257242;61;20361;-61
2023/05/13 01:22:23;0.00;0.00;0.62;0.00;0.00;0.62;3.57;3.27;;;27.40;22.70;;;;;;2256948;61;20815;-61
2023/05/13 01:25:08;0.00;0.00;0.62;0.00;0.00;0.62;4.13;3.73;;;27.40;22.70;;;;;;2257732;61;20370;-59
2023/05/13 01:27:54;0.00;0.00;0.62;0.00;0.00;0.62;3.60;3.20;;;27.30;22.70;;;;;;2256452;61;20409;-62
2023/05/13 01:30:40;0.00;0.00;0.62;0.00;0.00;0.62;4.13;3.73;;;27.30;22.70;;;;;;2256992;61;20404;-58
2023/05/13 01:33:25;0.00;0.00;0.62;0.00;0.00;0.62;4.00;3.70;;;27.30;22.70;;;;;;2256949;61;20408;-59
2023/05/13 01:36:10;0.00;0.00;0.62;0.00;0.00;0.62;3.60;3.30;;;27.30;22.70;;;;;;2256341;61;20428;-61
2023/05/13 01:39:00;0.00;0.00;0.62;0.00;0.00;0.62;3.50;3.20;;;27.30;22.70;;;;;;2259444;61;20443;-57
2023/05/13 01:41:47;0.00;0.00;0.62;0.00;0.00;0.62;3.80;3.50;;;27.30;22.70;;;;;;2257151;61;20929;-60
2023/05/13 01:44:32;0.00;0.00;0.62;0.00;0.00;0.62;4.17;3.80;;;27.30;22.70;;;;;;2257213;61;20381;-61
2023/05/13 01:47:18;0.00;0.00;0.62;0.00;0.00;0.62;4.10;3.37;;;27.30;22.70;;;;;;2256791;61;20370;-59
2023/05/13 01:50:03;0.00;0.00;0.62;0.00;0.00;0.62;3.80;3.50;;;27.30;22.70;;;;;;2274463;40;20486;-57
2023/05/13 01:52:48;0.00;0.00;0.62;0.00;0.00;0.62;4.43;3.50;;;27.30;22.70;;;;;;2256670;61;20366;-58
2023/05/13 01:55:35;0.00;0.00;0.62;0.00;0.00;0.62;3.50;3.20;;;27.30;22.70;;;;;;2256121;61;20419;-57
2023/05/13 01:58:21;0.00;0.00;0.62;0.00;0.00;0.62;3.87;3.57;;;27.30;22.70;;;;;;2255631;61;20366;-56
2023/05/13 02:01:06;0.00;0.00;0.62;0.00;0.00;0.62;4.40;4.00;;;27.30;22.70;;;;;;2254501;61;20375;-55
2023/05/13 02:03:50;0.00;0.00;0.62;0.00;0.00;0.62;4.20;3.80;;;27.30;23.20;;;;;;2252421;61;20903;-56
2023/05/13 02:06:37;0.00;0.00;0.62;0.00;0.00;0.62;4.27;3.63;;;27.30;22.70;;;;;;2251802;61;20406;-57
2023/05/13 02:09:22;0.00;0.00;0.62;0.00;0.00;0.62;4.40;4.00;;;27.30;22.70;;;;;;2251784;61;20457;-56
2023/05/13 02:12:08;0.00;0.00;0.62;0.00;0.00;0.62;3.90;3.60;;;27.30;22.70;;;;;;2251258;61;20375;-55
2023/05/13 02:14:54;0.00;0.00;0.62;0.00;0.00;0.62;3.40;3.10;;;27.30;22.70;;;;;;2252323;61;20374;-55
2023/05/13 02:17:39;0.00;0.00;0.62;0.00;0.00;0.62;3.80;3.50;;;27.20;22.70;;;;;;2252610;61;20359;-58
2023/05/13 02:20:25;0.00;0.00;0.62;0.00;0.00;0.62;4.17;3.87;;;27.20;22.70;;;;;;2250866;61;20465;-57
2023/05/13 02:23:10;0.00;0.00;0.62;0.00;0.00;0.62;3.70;3.40;;;27.20;22.70;;;;;;2252124;61;20405;-61
2023/05/13 02:25:55;0.00;0.00;0.62;0.00;0.00;0.62;3.77;3.47;;;27.20;22.70;;;;;;2251908;61;20452;-56
2023/05/13 02:28:41;0.00;0.00;0.62;0.00;0.00;0.62;3.57;3.27;;;27.20;23.20;;;;;;2252296;61;20433;-57
2023/05/13 02:31:25;0.00;0.00;0.62;0.00;0.00;0.62;4.20;3.77;;;27.20;22.70;;;;;;2265505;48;20405;-54
2023/05/13 02:34:10;0.00;0.00;0.62;0.00;0.00;0.62;3.73;3.43;;;27.20;22.70;;;;;;2259526;61;20361;-53
2023/05/13 02:36:55;0.00;0.00;0.62;0.00;0.00;0.62;3.23;2.93;;;27.20;22.70;;;;;;2260212;61;20393;-59
2023/05/13 02:39:41;0.00;0.00;0.62;0.00;0.00;0.62;3.70;3.40;;;27.20;22.70;;;;;;2298203;40;20364;31
2023/05/13 02:42:26;0.00;0.00;0.62;0.00;0.00;0.62;3.63;3.30;;;27.20;22.70;;;;;;2248552;61;20462;-57
2023/05/13 02:45:13;0.00;0.00;0.62;0.00;0.00;0.62;3.83;3.47;;;27.20;22.70;;;;;;2248288;61;20391;-55
2023/05/13 02:48:01;0.00;0.00;0.62;0.00;0.00;0.62;3.70;3.40;;;27.20;22.70;;;;;;2247822;61;20988;-55
2023/05/13 02:50:46;0.00;0.00;0.62;0.00;0.00;0.62;3.83;3.53;;;27.20;22.70;;;;;;2245725;61;20465;-56
2023/05/13 02:53:31;0.00;0.00;0.62;0.00;0.00;0.62;4.33;3.73;;;27.20;22.70;;;;;;2246593;61;20392;-57
2023/05/13 02:56:21;0.00;0.00;0.62;0.00;0.00;0.62;3.40;3.10;;;27.20;23.20;;;;;;2246057;61;20361;-59
2023/05/13 02:59:05;0.00;0.00;0.62;0.00;0.00;0.62;3.33;3.03;;;27.20;22.70;;;;;;2243818;61;20364;-56
2023/05/13 03:01:51;0.00;0.00;0.62;0.00;0.00;0.62;3.93;2.93;;;27.20;22.70;;;;;;2246519;61;20415;-60
2023/05/13 03:04:36;0.00;0.00;0.62;0.00;0.00;0.62;4.27;3.87;;;27.20;22.70;;;;;;2246048;61;20373;-55
2023/05/13 03:07:20;0.00;0.00;0.62;0.00;0.00;0.62;4.00;3.70;;;27.20;22.70;;;;;;2246437;61;20360;-59
2023/05/13 03:10:06;0.00;0.00;0.62;0.00;0.00;0.62;4.10;3.70;;;27.20;22.70;;;;;;2246153;61;20392;-55
2023/05/13 03:12:51;0.00;0.00;0.62;0.00;0.00;0.62;4.17;3.77;;;27.20;22.70;;;;;;2244091;61;20440;-56
2023/05/13 03:15:37;0.00;0.00;0.62;0.00;0.00;0.62;4.40;4.00;;;27.20;22.70;;;;;;2246494;61;20432;-56
2023/05/13 03:18:23;0.00;0.00;0.62;0.00;0.00;0.62;3.87;3.30;;;27.20;22.70;;;;;;2243700;61;20381;-57
2023/05/13 03:21:08;0.00;0.00;0.62;0.00;0.00;0.62;4.33;3.90;;;27.10;22.60;;;;;;2246268;61;20400;-57
2023/05/13 03:23:53;0.00;0.00;0.62;0.00;0.00;0.62;3.70;3.40;;;27.10;22.60;;;;;;2246689;61;20633;-64
2023/05/13 03:26:38;0.00;0.00;0.62;0.00;0.00;0.62;3.60;3.30;;;27.10;22.60;;;;;;2246134;61;20380;-57
2023/05/13 03:29:23;0.00;0.00;0.62;0.00;0.00;0.62;3.87;3.47;;;27.10;22.60;;;;;;2243159;61;20835;-59
2023/05/13 03:32:10;0.00;0.00;0.62;0.00;0.00;0.62;4.80;4.40;;;27.10;22.60;;;;;;2244012;61;20459;-57
2023/05/13 03:34:59;0.00;0.00;0.62;0.00;0.00;0.62;6.50;3.90;;;27.10;22.60;;;;;;2243543;61;20361;-59
2023/05/13 03:37:45;0.00;0.00;0.62;0.00;0.00;0.62;3.70;3.40;;;27.10;22.70;;;;;;2243992;61;20902;-57
2023/05/13 03:40:31;0.00;0.00;0.62;0.00;0.00;0.62;4.00;3.60;;;27.10;22.70;;;;;;2245578;61;20432;-53
2023/05/13 03:43:15;0.00;0.00;0.62;0.00;0.00;0.62;3.70;3.40;;;27.10;22.70;;;;;;2246473;61;20435;-49
2023/05/13 03:46:05;0.00;0.00;0.62;0.00;0.00;0.62;5.80;4.03;;;27.10;22.70;;;;;;2246838;61;20360;-62
2023/05/13 03:48:49;0.00;0.00;0.62;0.00;0.00;0.62;3.83;3.53;;;27.10;22.70;;;;;;2243062;61;20388;-57
2023/05/13 03:51:36;0.00;0.00;0.62;0.00;0.00;0.62;3.90;3.50;;;27.10;23.20;;;;;;2246480;61;20412;-60
2023/05/13 03:54:21;0.00;0.00;0.62;0.00;0.00;0.62;3.90;3.60;;;27.10;22.70;;;;;;2246523;61;20432;-60
2023/05/13 03:57:07;0.00;0.00;0.62;0.00;0.00;0.62;3.90;3.60;;;27.10;22.70;;;;;;2245952;61;20373;-55
2023/05/13 03:59:52;0.00;0.00;0.62;0.00;0.00;0.62;3.90;3.60;;;27.00;22.90;;;;;;2246073;61;20516;-56
2023/05/13 04:02:37;0.00;0.00;0.62;0.00;0.00;0.62;4.50;3.53;;;27.10;22.70;;;;;;2246072;61;20384;-60
2023/05/13 04:05:21;0.00;0.00;0.62;0.00;0.00;0.62;4.10;3.70;;;27.10;22.70;;;;;;2246532;61;20416;-54
2023/05/13 04:08:10;0.00;0.00;0.62;0.00;0.00;0.62;3.83;3.50;;;27.00;22.70;;;;;;2244433;61;20397;-52
2023/05/13 04:10:56;0.00;0.00;0.62;0.00;0.00;0.62;3.73;3.33;;;27.00;22.70;;;;;;2243132;61;20873;-55
2023/05/13 04:13:42;0.00;0.00;0.62;0.00;0.00;0.62;4.23;3.80;;;27.00;22.70;;;;;;2244173;61;20372;-56
2023/05/13 04:16:28;0.00;0.00;0.62;0.00;0.00;0.62;3.70;3.40;;;27.00;22.70;;;;;;2246478;61;20912;-59
2023/05/13 04:19:13;0.00;0.00;0.62;0.00;0.00;0.62;4.10;3.70;;;27.00;22.70;;;;;;2245357;61;20356;-59
2023/05/13 04:21:57;0.00;0.00;0.62;0.00;0.00;0.62;3.60;3.30;;;27.00;23.20;;;;;;2244176;61;20970;-56
2023/05/13 04:24:43;0.00;0.00;0.62;0.00;0.00;0.62;3.70;3.40;;;27.00;22.70;;;;;;2243292;61;20373;-60
2023/05/13 04:27:28;0.00;0.00;0.62;0.00;0.00;0.62;3.60;3.30;;;27.00;22.70;;;;;;2244257;61;20396;-58
2023/05/13 04:30:28;0.00;0.00;0.62;0.00;0.00;0.62;3.13;2.83;;;27.00;22.80;;;;;;2245971;61;20973;-57
2023/05/13 04:33:13;0.00;0.00;0.62;0.00;0.00;0.62;3.60;3.30;;;27.00;22.70;;;;;;2245678;61;20827;-56
2023/05/13 04:36:01;0.00;0.00;0.62;0.00;0.00;0.62;3.50;3.20;;;27.00;22.80;;;;;;2246507;61;20412;-58
2023/05/13 04:38:46;0.00;0.00;0.62;0.00;0.00;0.62;3.60;3.07;;;27.00;22.80;;;;;;2246270;61;20395;-56
2023/05/13 04:41:32;0.00;0.00;0.62;0.00;0.00;0.62;3.43;3.13;;;27.00;22.80;;;;;;2242811;61;20384;-56
2023/05/13 04:44:17;0.00;0.00;0.62;0.00;0.00;0.62;3.43;3.13;;;27.00;22.80;;;;;;2244267;61;20796;-57
2023/05/13 04:47:02;0.00;0.00;0.62;0.00;0.00;0.62;3.63;3.33;;;27.00;22.80;;;;;;2245229;61;20361;-58
2023/05/13 04:49:47;0.00;0.00;0.62;0.00;0.00;0.62;3.80;3.37;;;27.00;22.80;;;;;;2245858;61;20388;-58
2023/05/13 04:52:32;0.00;0.00;0.62;0.00;0.00;0.62;3.10;2.80;;;27.00;22.80;;;;;;2246234;61;20380;-56
2023/05/13 04:55:17;0.00;0.00;0.62;0.00;0.00;0.62;3.20;2.93;;;27.00;22.80;;;;;;2245671;61;20408;-58
2023/05/13 04:58:03;0.00;0.00;0.62;0.00;0.00;0.62;3.53;3.23;;;27.00;22.80;;;;;;2243667;61;20391;-55
2023/05/13 05:00:49;0.00;0.00;0.62;0.00;0.00;0.62;3.80;3.50;;;27.00;22.80;;;;;;2245829;61;20388;-56
2023/05/13 05:03:33;0.00;0.00;0.62;0.00;0.00;0.62;3.87;3.57;;;27.00;22.80;;;;;;2243208;61;20361;-56
2023/05/13 05:06:18;0.00;0.00;0.62;0.00;0.00;0.62;3.27;2.97;;;27.00;22.90;;;;;;2246251;61;20364;-58
2023/05/13 05:09:04;0.00;0.00;0.62;0.00;0.00;0.62;3.30;3.00;;;27.00;22.80;;;;;;2245734;61;20392;-61
2023/05/13 05:11:49;0.00;0.00;0.62;0.00;0.00;0.62;3.73;3.37;;;27.00;22.90;;;;;;2246364;61;20849;-56
2023/05/13 05:14:37;0.00;0.00;0.62;0.00;0.00;0.62;3.13;2.90;;;27.00;22.90;;;;;;2246183;61;20364;-56
2023/05/13 05:17:23;0.00;0.00;0.62;0.00;0.00;0.62;3.90;3.20;;;27.00;22.90;;;;;;2245719;61;20509;-58
2023/05/13 05:20:10;0.00;0.00;0.62;0.00;0.00;0.62;4.20;3.80;;;26.90;22.80;;;;;;2245877;61;20384;-55
2023/05/13 05:22:56;0.00;0.00;0.62;0.00;0.00;0.62;3.87;3.57;;;26.90;22.80;;;;;;2246348;61;20452;-58
2023/05/13 05:25:42;0.00;0.00;0.62;0.00;0.00;0.62;3.60;3.30;;;27.00;22.90;;;;;;2245622;61;20364;-58
2023/05/13 05:28:27;0.00;0.00;0.62;0.00;0.00;0.62;3.50;3.20;;;27.00;22.90;;;;;;2243986;61;20384;-53
2023/05/13 05:31:14;0.00;0.00;0.62;0.00;0.00;0.62;3.20;2.90;;;26.90;22.80;;;;;;2245683;61;20472;-59
2023/05/13 05:34:00;0.00;0.00;0.62;0.00;0.00;0.62;3.20;2.90;;;26.90;22.80;;;;;;2246131;61;20372;-57
2023/05/13 05:36:45;0.00;0.00;0.62;0.00;0.00;0.62;3.50;3.20;;;27.00;22.90;;;;;;2246378;61;20385;-56
2023/05/13 05:39:34;0.00;0.00;0.62;0.00;0.00;0.62;5.13;4.07;;;27.00;22.90;;;;;;2245157;61;20411;-57
2023/05/13 05:42:19;0.00;0.00;0.62;0.00;0.00;0.62;4.40;3.80;;;26.90;22.80;;;;;;2246103;61;20408;-59
2023/05/13 05:45:04;0.00;0.00;0.62;0.00;0.00;0.62;4.17;3.77;;;26.90;22.80;;;;;;2243934;61;20501;-59
2023/05/13 05:47:52;0.00;0.00;0.62;0.00;0.00;0.62;4.03;3.70;;;26.90;22.80;;;;;;2242657;61;20913;-56
2023/05/13 05:50:38;0.00;0.00;0.62;0.00;0.00;0.62;3.53;3.23;;;26.90;22.80;;;;;;2245949;61;20815;-53
2023/05/13 05:53:25;0.00;0.00;0.62;0.00;0.00;0.62;3.63;3.33;;;26.90;22.80;;;;;;2243194;61;20897;-61
2023/05/13 05:56:10;0.00;0.00;0.62;0.00;0.00;0.62;3.40;3.10;;;26.90;22.80;;;;;;2245964;61;20360;-56
2023/05/13 05:58:55;0.00;0.00;0.62;0.00;0.00;0.62;4.77;3.40;;;26.90;22.80;;;;;;2245962;61;20768;-56
2023/05/13 06:01:40;0.00;0.00;0.62;0.00;0.00;0.62;5.93;3.43;;;26.90;22.80;;;;;;2246292;61;20380;-57
2023/05/13 06:04:26;0.00;0.00;0.62;0.00;0.00;0.62;3.90;3.50;;;26.90;22.80;;;;;;2243998;61;20368;-55
2023/05/13 06:07:12;0.00;0.00;0.62;0.00;0.00;0.62;3.90;3.60;;;26.90;22.80;;;;;;2247127;61;20469;-54
2023/05/13 06:09:57;0.00;0.00;0.62;0.00;0.00;0.62;3.30;3.00;;;26.90;22.80;;;;;;2243539;61;20428;-56
2023/05/13 06:12:41;0.00;0.00;0.62;0.00;0.00;0.62;3.13;2.83;;;26.90;22.80;;;;;;2244433;61;20392;-56
2023/05/13 06:15:28;0.00;0.00;0.62;0.00;0.00;0.62;3.60;3.30;;;26.90;22.80;;;;;;2246990;61;20777;-55
2023/05/13 06:18:13;0.00;0.00;0.62;0.00;0.00;0.62;3.10;2.80;;;26.90;22.80;;;;;;2244506;61;20832;-60
2023/05/13 06:20:59;0.00;0.00;0.62;0.00;0.00;0.62;3.77;3.47;;;26.90;22.80;;;;;;2246388;61;20831;-55
2023/05/13 06:23:44;0.00;0.00;0.62;0.00;0.00;0.62;3.43;3.13;;;26.90;22.80;;;;;;2243929;61;20367;-58
2023/05/13 06:26:31;0.00;0.00;0.62;0.00;0.00;0.62;4.00;3.23;;;26.90;22.80;;;;;;2246593;61;20372;-59
2023/05/13 06:29:16;0.00;0.00;0.62;0.00;0.00;0.62;3.73;3.33;;;26.90;22.80;;;;;;2244147;61;20400;-57
2023/05/13 06:32:01;0.00;0.00;0.62;0.00;0.00;0.62;3.97;3.53;;;26.90;22.80;;;;;;2243782;61;20402;-53
2023/05/13 06:34:47;0.00;0.00;0.62;0.00;0.00;0.62;3.63;3.33;;;26.90;22.80;;;;;;2241332;61;20873;-55
2023/05/13 06:37:33;0.00;0.00;0.62;0.00;0.00;0.62;3.30;3.00;;;26.90;22.80;;;;;;2246581;61;20368;-57
2023/05/13 06:40:18;0.00;0.00;0.62;0.00;0.00;0.62;4.20;3.10;;;26.90;22.80;;;;;;2243797;61;20385;-53
2023/05/13 06:43:03;0.00;0.00;0.62;0.00;0.00;0.62;3.60;3.30;;;26.90;22.80;;;;;;2246743;61;20715;-58
2023/05/13 06:45:54;0.00;0.00;0.62;0.00;0.00;0.62;3.80;3.50;;;26.90;22.80;;;;;;2246171;61;20906;-53
2023/05/13 06:48:39;0.00;0.00;0.62;0.00;0.00;0.62;3.60;2.80;;;26.90;22.80;;;;;;2243832;61;20390;-55
2023/05/13 06:51:26;0.00;0.00;0.62;0.00;0.00;0.62;3.60;3.20;;;26.90;22.80;;;;;;2244388;61;20523;-60
2023/05/13 06:54:12;0.00;0.00;0.62;0.00;0.00;0.62;3.30;3.00;;;26.90;22.80;;;;;;2243678;61;20554;-56
2023/05/13 06:56:57;0.00;0.00;0.62;0.00;0.00;0.62;3.50;3.20;;;26.90;22.90;;;;;;2246739;61;21045;-61
2023/05/13 06:59:43;0.00;0.00;0.62;0.00;0.00;0.62;3.50;3.20;;;26.90;22.80;;;;;;2243964;61;20381;-55
2023/05/13 07:02:28;0.00;0.00;0.62;0.00;0.00;0.62;3.70;3.13;;;26.90;22.90;;;;;;2244452;61;20760;-55
2023/05/13 07:05:13;0.00;0.00;0.62;0.00;0.00;0.62;3.87;3.20;;;26.90;22.80;;;;;;2244413;61;20841;-58
2023/05/13 07:07:57;0.00;0.00;0.62;0.00;0.00;0.62;4.20;2.93;;;26.90;22.80;;;;;;2243739;61;20365;-57
2023/05/13 07:10:43;0.00;0.00;0.62;0.00;0.00;0.62;3.50;3.20;;;26.90;22.90;;;;;;2243654;61;20936;-56
2023/05/13 07:13:29;0.00;0.00;0.62;0.00;0.00;0.62;3.40;3.10;;;26.90;22.80;;;;;;2244278;61;20357;-54
2023/05/13 07:16:15;0.00;0.00;0.62;0.00;0.00;0.62;3.53;2.70;;;26.90;22.90;;;;;;2243102;61;20960;-56
2023/05/13 07:19:00;0.00;0.00;0.62;0.00;0.00;0.62;3.93;3.30;;;26.90;22.80;;;;;;2244005;61;20396;-57
2023/05/13 07:21:45;0.00;0.00;0.62;0.00;0.00;0.62;3.60;2.70;;;26.90;22.90;;;;;;2244218;61;20367;-52
2023/05/13 07:24:30;0.00;0.00;0.62;0.00;0.00;0.62;3.07;2.87;;;26.90;22.90;;;;;;2243793;61;20754;-57
2023/05/13 07:27:15;0.00;0.00;0.62;0.00;0.00;0.62;2.80;2.60;;;26.90;22.90;;;;;;2244510;61;20373;-56
2023/05/13 07:30:01;0.00;0.00;0.62;0.00;0.00;0.62;3.40;3.10;;;26.90;22.90;;;;;;2268569;40;20440;-58
2023/05/13 07:32:46;0.00;0.00;0.62;0.00;0.00;0.62;3.00;2.80;;;26.90;22.90;;;;;;2261725;61;20364;-56
2023/05/13 07:35:31;0.00;0.00;0.62;0.00;0.00;0.62;4.07;3.67;;;26.90;22.90;;;;;;2260282;61;20696;-58
2023/05/13 07:38:16;0.00;0.00;0.62;0.00;0.00;0.62;3.30;3.00;;;26.90;22.90;;;;;;2259422;61;20777;-54
2023/05/13 07:41:00;0.00;0.00;0.62;0.00;0.00;0.62;3.00;2.60;;;26.90;22.90;;;;;;2260020;61;20439;-56
2023/05/13 07:43:47;0.00;0.00;0.62;0.00;0.00;0.62;3.50;3.20;;;26.90;23.40;;;;;;2260006;61;20535;-57
2023/05/13 07:46:31;0.00;0.00;0.62;0.00;0.00;0.62;3.43;3.13;;;26.90;22.90;;;;;;2259521;61;20396;-57
2023/05/13 07:49:16;0.00;0.00;0.62;0.00;0.00;0.62;3.43;3.13;;;26.90;22.90;;;;;;2259686;61;20816;-58
2023/05/13 07:52:00;0.00;0.00;0.62;0.00;0.00;0.62;3.47;3.17;;;26.90;22.90;;;;;;2259709;61;20504;-59
2023/05/13 07:54:46;0.00;0.00;0.62;0.00;0.00;0.62;3.20;2.90;;;26.90;22.90;;;;;;2260110;61;20408;-57
2023/05/13 07:57:30;0.00;0.00;0.62;0.00;0.00;0.62;3.53;3.23;;;26.90;22.90;;;;;;2259677;61;20360;-59
2023/05/13 08:00:17;0.00;0.00;0.62;0.00;0.00;0.62;3.87;3.57;;;26.90;22.90;;;;;;2259003;61;20505;-59
2023/05/13 08:03:02;0.00;0.00;0.62;0.00;0.00;0.62;3.10;2.80;;;26.90;22.90;;;;;;2259901;61;20661;-59
2023/05/13 08:05:47;0.00;0.00;0.62;0.00;0.00;0.62;3.00;2.80;;;26.90;22.90;;;;;;2260109;61;20412;-53
2023/05/13 08:08:32;0.00;0.00;0.62;0.00;0.00;0.62;2.90;2.60;;;26.90;22.90;;;;;;2259692;61;20842;-56
2023/05/13 08:11:17;0.00;0.00;0.62;0.00;0.00;0.62;3.23;2.93;;;26.90;22.90;;;;;;2259995;61;20408;-55
2023/05/13 08:14:01;0.00;0.00;0.62;0.00;0.00;0.62;4.23;3.20;;;26.90;22.90;;;;;;2259943;61;20449;-59
2023/05/13 08:16:47;0.00;0.00;0.62;0.00;0.00;0.62;2.90;2.60;;;26.90;22.90;;;;;;2260175;61;20449;-59
2023/05/13 08:19:32;0.00;0.00;0.62;0.00;0.00;0.62;3.40;2.97;;;26.90;22.90;;;;;;2259714;61;20395;-58
2023/05/13 08:22:17;0.00;0.00;0.62;0.00;0.00;0.62;3.63;3.20;;;26.90;22.90;;;;;;2259008;61;20380;-55
2023/05/13 08:25:02;0.00;0.00;0.62;0.00;0.00;0.62;3.17;2.87;;;26.90;22.90;;;;;;2259975;61;20369;-53
2023/05/13 08:27:47;0.00;0.00;0.62;0.00;0.00;0.62;5.10;3.30;;;26.90;22.90;;;;;;2260069;61;20917;-59
2023/05/13 08:30:31;0.00;0.00;0.62;0.00;0.00;0.62;3.40;3.10;;;26.90;22.90;;;;;;2259097;61;20539;-57
2023/05/13 08:33:17;0.00;0.00;0.62;0.00;0.00;0.62;3.80;3.50;;;26.90;22.90;;;;;;2260044;61;20897;-57
2023/05/13 08:36:02;0.00;0.00;0.62;0.00;0.00;0.62;3.33;2.93;;;26.90;22.90;;;;;;2260207;61;20369;-58
2023/05/13 08:38:48;0.00;0.00;0.62;0.00;0.00;0.62;3.53;3.10;;;26.90;22.90;;;;;;2259801;61;20609;-59
2023/05/13 08:41:33;0.00;0.00;0.62;0.00;0.00;0.62;3.83;3.43;;;26.90;22.90;;;;;;2260055;61;20787;-54
2023/05/13 08:44:21;0.00;0.00;0.62;0.00;0.00;0.62;2.80;2.50;;;26.90;22.90;;;;;;2259310;61;20748;-58
2023/05/13 08:47:15;0.00;0.00;0.62;0.00;0.00;0.62;3.10;2.90;;;26.90;22.90;;;;;;2259858;61;20457;-55
2023/05/13 08:50:01;0.00;0.00;0.62;0.00;0.00;0.62;2.90;2.70;;;26.90;23.50;;;;;;2259544;61;20889;-53
2023/05/13 08:52:48;0.00;0.00;0.62;0.00;0.00;0.62;3.40;3.10;;;26.90;22.90;;;;;;2259692;61;20626;-55
2023/05/13 08:55:32;0.00;0.00;0.62;0.00;0.00;0.62;3.30;3.00;;;26.90;22.90;;;;;;2260044;61;20438;-53
2023/05/13 08:58:17;0.00;0.00;0.62;0.00;0.00;0.62;3.10;2.80;;;26.90;22.90;;;;;;2260278;61;20365;-57
2023/05/13 09:01:03;0.00;0.00;0.62;0.00;0.00;0.62;3.40;3.03;;;26.90;23.00;;;;;;2259607;61;20889;-55
2023/05/13 09:03:57;0.00;0.00;0.62;0.00;0.00;0.62;3.60;3.30;;;26.90;23.00;;;;;;2259849;61;20369;-56
2023/05/13 09:06:45;0.00;0.00;0.62;0.00;0.00;0.62;3.53;3.03;;;26.90;23.00;;;;;;2259614;61;20404;-58
2023/05/13 09:09:30;0.00;0.00;0.62;0.00;0.00;0.62;3.27;2.97;;;26.90;23.00;;;;;;2259811;61;20385;-55
2023/05/13 09:12:43;0.00;0.00;0.62;0.00;0.00;0.62;3.63;3.33;;;26.90;23.00;;;;;;2259800;61;20408;-56
2023/05/13 09:15:29;0.00;0.00;0.62;0.00;0.00;0.62;4.57;3.60;;;26.90;23.00;;;;;;2259565;61;20938;-59
2023/05/13 09:18:14;0.00;0.00;0.62;0.00;0.00;0.62;4.00;2.73;;;26.90;23.00;;;;;;2259915;61;20424;-51
2023/05/13 09:21:23;0.00;0.00;0.62;0.00;0.00;0.62;3.10;2.80;;;26.90;23.00;;;;;;2258857;61;20389;-55
2023/05/13 09:24:20;0.00;0.00;0.62;0.00;0.00;0.62;3.30;2.97;;;26.90;23.10;;;;;;2259881;61;20445;-58
2023/05/13 09:27:05;0.00;0.00;0.62;0.00;0.00;0.62;3.27;3.00;;;26.90;23.10;;;;;;2260034;61;20449;-57
2023/05/13 09:29:59;0.00;0.00;0.62;0.00;0.00;0.62;4.17;3.30;;;26.90;23.10;;;;;;2259098;61;20944;-58
2023/05/13 09:33:02;0.00;0.00;0.62;0.00;0.00;0.62;3.50;3.20;;;26.90;23.10;;;;;;2260055;61;20774;-59
2023/05/13 09:35:51;0.00;0.00;0.62;0.00;0.00;0.62;3.50;3.20;;;26.90;23.20;;;;;;2259627;61;20447;-55
2023/05/13 09:38:37;0.00;0.00;0.62;0.00;0.00;0.62;3.57;3.23;;;26.90;23.20;;;;;;2260623;61;21095;-58
2023/05/13 09:41:25;0.00;0.00;0.62;0.00;0.00;0.62;3.40;3.10;;;26.90;23.20;;;;;;2260276;61;20381;-57
2023/05/13 09:44:12;0.00;0.00;0.62;0.00;0.00;0.62;3.00;2.70;;;26.90;23.20;;;;;;2260073;61;20372;-55
2023/05/13 09:46:57;0.00;0.00;0.62;0.00;0.00;0.62;3.40;3.10;;;26.90;23.30;;;;;;2260446;61;20442;-55
2023/05/13 09:49:44;0.00;0.00;0.62;0.00;0.00;0.62;3.40;3.10;;;26.90;23.30;;;;;;2259591;61;20804;-56
2023/05/13 09:52:30;0.00;0.00;0.62;0.00;0.00;0.62;3.43;3.13;;;26.90;23.30;;;;;;2260195;61;20680;-55
2023/05/13 09:55:15;0.00;0.00;0.62;0.00;0.00;0.62;3.30;3.00;;;26.90;23.30;;;;;;2260132;61;20388;-56
2023/05/13 09:58:02;0.00;0.00;0.62;0.00;0.00;0.62;3.53;3.23;;;26.90;23.30;;;;;;2260110;61;20380;-58
2023/05/13 10:00:47;0.00;0.00;0.62;0.00;0.00;0.62;3.70;3.33;;;27.00;23.90;;;;;;2260297;61;20411;-56
2023/05/13 10:03:32;0.00;0.00;0.62;0.00;0.00;0.62;3.40;3.10;;;26.90;23.30;;;;;;2260233;61;20901;-62
2023/05/13 10:06:21;0.00;0.00;0.62;0.00;0.00;0.62;3.73;3.43;;;27.00;23.30;;;;;;2259984;61;20381;-56
2023/05/13 10:09:08;0.00;0.00;0.62;0.00;0.00;0.62;3.30;3.00;;;27.00;23.30;;;;;;2260031;61;20514;-58
2023/05/13 10:11:54;0.00;0.00;0.62;0.00;0.00;0.62;3.33;3.00;;;27.00;23.30;;;;;;2260608;61;20365;-55
2023/05/13 10:14:41;0.00;0.00;0.62;0.00;0.00;0.62;3.70;3.30;;;27.00;23.30;;;;;;2260126;61;20932;-59
2023/05/13 10:17:28;0.00;0.00;0.62;0.00;0.00;0.62;4.40;4.00;;;27.00;23.30;;;;;;2260062;61;20365;-57
2023/05/13 10:20:14;0.00;0.00;0.62;0.00;0.00;0.62;3.57;3.27;;;27.00;23.30;;;;;;2259536;61;20415;-55
2023/05/13 10:22:59;0.00;0.00;0.62;0.00;0.00;0.62;3.00;2.77;;;27.00;23.30;;;;;;2260293;61;20375;-55
2023/05/13 10:25:46;0.00;0.00;0.62;0.00;0.00;0.62;3.23;2.93;;;27.00;23.30;;;;;;2260268;61;20459;-57
2023/05/13 10:28:31;0.00;0.00;0.62;0.00;0.00;0.62;3.40;3.10;;;27.00;23.30;;;;;;2260049;61;20411;-57
2023/05/13 10:31:17;0.00;0.00;0.62;0.00;0.00;0.62;3.77;3.40;;;27.00;23.30;;;;;;2260411;61;20381;-56
2023/05/13 10:34:03;0.00;0.00;0.62;0.00;0.00;0.62;3.67;3.37;;;27.00;23.30;;;;;;2260418;61;20377;-57
2023/05/13 10:37:21;0.00;0.00;0.62;0.00;0.00;0.62;3.70;3.30;;;27.10;23.40;;;;;;2260036;61;20357;-55
2023/05/13 10:40:30;0.00;0.00;0.62;0.00;0.00;0.62;3.40;3.10;;;27.10;23.40;;;;;;2260091;61;20377;-57
2023/05/13 10:43:18;0.00;0.00;0.62;0.00;0.00;0.62;3.00;2.80;;;27.10;23.40;;;;;;2259796;61;20399;-61
2023/05/13 10:46:05;0.00;0.00;0.62;0.00;0.00;0.62;3.67;3.10;;;27.10;23.40;;;;;;2259804;61;20393;-65
2023/05/13 10:48:59;0.00;0.00;0.62;0.00;0.00;0.62;3.87;3.57;;;27.10;23.40;;;;;;2260210;61;20431;-61
2023/05/13 10:51:46;0.00;0.00;0.62;0.00;0.00;0.62;3.60;3.30;;;27.10;23.40;;;;;;2260005;61;20423;-63
2023/05/13 10:54:40;0.00;0.00;0.62;0.00;0.00;0.62;3.83;3.17;;;27.10;23.40;;;;;;2260121;61;20360;-63
2023/05/13 10:57:28;0.00;0.00;0.62;0.00;0.00;0.62;3.47;3.17;;;27.10;23.40;;;;;;2259431;61;20499;-62